createdAt,value
2022-11-21T00:00:30.496Z,3.00
2022-11-21T00:01:30.496Z,2.80
2022-11-21T00:02:30.476Z,3.10
2022-11-21T00:03:30.495Z,3.30
2022-11-21T00:04:30.467Z,3.00
2022-11-21T00:05:30.465Z,2.90
2022-11-21T00:06:30.436Z,3.00
2022-11-21T00:07:30.548Z,3.10
2022-11-21T00:08:30.457Z,2.60
2022-11-21T00:09:30.429Z,2.90
2022-11-21T00:10:30.397Z,3.10
2022-11-21T00:11:30.418Z,2.50
2022-11-21T00:12:30.387Z,2.60
2022-11-21T00:13:30.439Z,2.90
2022-11-21T00:14:30.367Z,2.70
2022-11-21T00:15:30.376Z,2.90
2022-11-21T00:16:30.336Z,2.70
2022-11-21T00:17:30.344Z,2.90
2022-11-21T00:18:30.316Z,2.70
2022-11-21T00:19:30.374Z,2.70
2022-11-21T00:20:30.286Z,3.00
2022-11-21T00:21:30.296Z,3.20
2022-11-21T00:22:30.277Z,2.50
2022-11-21T00:23:30.278Z,2.70
2022-11-21T00:24:30.282Z,3.00
2022-11-21T00:25:30.298Z,2.90
2022-11-21T00:26:30.239Z,2.80
2022-11-21T00:27:30.234Z,2.90
2022-11-21T00:28:30.208Z,2.90
2022-11-21T00:29:30.216Z,2.70
2022-11-21T00:30:30.186Z,2.70
2022-11-21T00:31:30.219Z,2.70
2022-11-21T00:32:30.183Z,2.60
2022-11-21T00:33:30.187Z,2.30
2022-11-21T00:34:30.182Z,2.80
2022-11-21T00:35:30.168Z,2.70
2022-11-21T00:36:30.159Z,2.30
2022-11-21T00:37:30.149Z,2.50
2022-11-21T00:38:30.118Z,2.70
2022-11-21T00:39:30.116Z,3.00
2022-11-21T00:40:30.109Z,2.90
2022-11-21T00:41:30.105Z,3.00
2022-11-21T00:42:30.076Z,2.60
2022-11-21T00:43:30.066Z,2.60
2022-11-21T00:44:30.123Z,2.40
2022-11-21T00:45:30.058Z,2.70
2022-11-21T00:46:30.057Z,2.50
2022-11-21T00:47:30.047Z,2.50
2022-11-21T00:48:30.039Z,2.50
2022-11-21T00:49:30.026Z,2.30
2022-11-21T00:50:29.998Z,2.50
2022-11-21T00:51:30.158Z,2.50
2022-11-21T00:52:30.048Z,2.30
2022-11-21T00:53:29.989Z,3.00
2022-11-21T00:54:29.984Z,2.40
2022-11-21T00:55:30.917Z,3.00
2022-11-21T00:56:29.937Z,2.30
2022-11-21T00:57:29.965Z,2.50
2022-11-21T00:58:29.968Z,2.50
2022-11-21T00:59:29.918Z,2.50
2022-11-21T01:00:29.975Z,2.70
2022-11-21T01:01:29.905Z,2.60
2022-11-21T01:02:29.877Z,2.40
2022-11-21T01:03:29.888Z,2.90
2022-11-21T01:04:29.974Z,2.20
2022-11-21T01:05:29.871Z,2.50
2022-11-21T01:06:29.850Z,2.80
2022-11-21T01:07:29.918Z,2.90
2022-11-21T01:08:29.822Z,2.20
2022-11-21T01:09:29.829Z,2.20
2022-11-21T01:10:29.798Z,2.40
2022-11-21T01:11:29.806Z,2.40
2022-11-21T01:12:29.789Z,2.70
2022-11-21T01:13:29.776Z,2.60
2022-11-21T01:14:30.046Z,2.60
2022-11-21T01:15:29.771Z,2.40
2022-11-21T01:16:29.747Z,2.80
2022-11-21T01:17:29.746Z,2.40
2022-11-21T01:18:29.766Z,2.40
2022-11-21T01:20:26.601Z,2.10
2022-11-21T01:21:26.551Z,2.30
2022-11-21T01:22:26.563Z,2.50
2022-11-21T01:23:26.544Z,2.50
2022-11-21T01:24:26.710Z,2.40
2022-11-21T01:25:26.527Z,2.30
2022-11-21T01:26:26.977Z,2.20
2022-11-21T01:27:26.490Z,2.80
2022-11-21T01:28:26.480Z,2.50
2022-11-21T01:29:26.479Z,2.30
2022-11-21T01:30:26.488Z,2.40
2022-11-21T01:31:26.470Z,2.50
2022-11-21T01:32:26.482Z,2.50
2022-11-21T01:33:26.439Z,2.60
2022-11-21T01:34:26.807Z,2.70
2022-11-21T01:35:26.412Z,2.20
2022-11-21T01:36:26.463Z,2.10
2022-11-21T01:37:26.433Z,2.10
2022-11-21T01:38:28.130Z,2.00
2022-11-21T01:39:26.404Z,2.10
2022-11-21T01:40:26.380Z,2.60
2022-11-21T01:41:26.449Z,2.50
2022-11-21T01:42:26.360Z,2.40
2022-11-21T01:43:26.346Z,2.20
2022-11-21T01:44:26.890Z,2.30
2022-11-21T01:45:26.328Z,1.90
2022-11-21T01:46:26.340Z,2.50
2022-11-21T01:47:26.290Z,2.50
2022-11-21T01:48:26.304Z,2.40
2022-11-21T01:49:26.310Z,2.00
2022-11-21T01:50:26.294Z,2.10
2022-11-21T01:51:26.265Z,2.30
2022-11-21T01:52:26.273Z,2.40
2022-11-21T01:53:26.232Z,2.10
2022-11-21T01:54:26.711Z,2.20
2022-11-21T01:55:26.251Z,2.40
2022-11-21T01:56:26.232Z,1.90
2022-11-21T01:57:26.193Z,2.20
2022-11-21T01:58:26.201Z,2.10
2022-11-21T01:59:26.182Z,2.40
2022-11-21T02:00:26.440Z,1.80
2022-11-21T02:01:26.217Z,2.30
2022-11-21T02:02:26.162Z,2.50
2022-11-21T02:03:26.123Z,2.20
2022-11-21T02:04:26.516Z,2.10
2022-11-21T02:05:26.103Z,2.80
2022-11-21T02:06:26.138Z,1.90
2022-11-21T02:07:26.171Z,2.40
2022-11-21T02:08:26.125Z,2.40
2022-11-21T02:09:26.069Z,2.40
2022-11-21T02:10:26.061Z,2.30
2022-11-21T02:11:26.082Z,1.70
2022-11-21T02:12:26.080Z,2.10
2022-11-21T02:13:26.063Z,2.10
2022-11-21T02:14:26.388Z,2.30
2022-11-21T02:15:26.003Z,2.00
2022-11-21T02:16:26.035Z,2.30
2022-11-21T02:17:25.993Z,2.20
2022-11-21T02:18:26.422Z,2.50
2022-11-21T02:19:25.973Z,2.60
2022-11-21T02:20:25.972Z,2.00
2022-11-21T02:21:25.942Z,2.40
2022-11-21T02:22:25.961Z,2.50
2022-11-21T02:23:25.930Z,2.40
2022-11-21T02:24:26.275Z,1.80
2022-11-21T02:25:25.900Z,2.50
2022-11-21T02:26:25.903Z,2.00
2022-11-21T02:27:26.413Z,2.10
2022-11-21T02:28:25.894Z,2.50
2022-11-21T02:29:25.933Z,2.30
2022-11-21T02:30:25.882Z,1.90
2022-11-21T02:31:25.872Z,2.00
2022-11-21T02:32:25.895Z,2.10
2022-11-21T02:33:25.835Z,2.10
2022-11-21T02:34:26.963Z,2.40
2022-11-21T02:35:25.840Z,1.80
2022-11-21T02:36:26.433Z,2.00
2022-11-21T02:37:25.802Z,2.30
2022-11-21T02:38:25.830Z,2.00
2022-11-21T02:39:25.762Z,1.80
2022-11-21T02:40:25.799Z,2.40
2022-11-21T02:41:25.873Z,2.20
2022-11-21T02:42:25.743Z,2.00
2022-11-21T02:43:26.428Z,2.30
2022-11-21T02:44:26.065Z,1.90
2022-11-21T02:45:25.702Z,2.10
2022-11-21T02:46:25.703Z,2.00
2022-11-21T02:47:25.706Z,2.10
2022-11-21T02:48:25.703Z,1.80
2022-11-21T02:49:25.673Z,2.60
2022-11-21T02:50:25.661Z,1.60
2022-11-21T02:51:25.644Z,2.00
2022-11-21T02:52:25.660Z,1.90
2022-11-21T02:53:26.033Z,2.20
2022-11-21T02:54:25.935Z,2.60
2022-11-21T02:55:25.623Z,2.30
2022-11-21T02:56:25.606Z,2.30
2022-11-21T02:57:25.604Z,1.90
2022-11-21T02:58:25.585Z,1.80
2022-11-21T02:59:25.626Z,1.90
2022-11-21T03:00:25.552Z,1.80
2022-11-21T03:01:25.589Z,1.80
2022-11-21T03:02:25.551Z,1.60
2022-11-21T03:03:26.190Z,1.80
2022-11-21T03:04:25.824Z,1.90
2022-11-21T03:05:25.903Z,1.80
2022-11-21T03:06:25.515Z,2.10
2022-11-21T03:07:25.533Z,2.00
2022-11-21T03:08:25.504Z,1.70
2022-11-21T03:09:25.482Z,1.90
2022-11-21T03:10:25.466Z,2.10
2022-11-21T03:11:25.504Z,2.20
2022-11-21T03:12:25.463Z,1.90
2022-11-21T03:13:25.443Z,1.90
2022-11-21T03:14:25.866Z,2.00
2022-11-21T03:15:25.447Z,1.60
2022-11-21T03:16:25.392Z,1.80
2022-11-21T03:17:25.414Z,1.90
2022-11-21T03:18:25.371Z,2.00
2022-11-21T03:19:25.374Z,1.90
2022-11-21T03:20:25.523Z,2.00
2022-11-21T03:21:25.381Z,2.30
2022-11-21T03:22:25.324Z,1.90
2022-11-21T03:23:25.343Z,1.70
2022-11-21T03:24:25.571Z,1.90
2022-11-21T03:25:25.547Z,1.80
2022-11-21T03:26:25.294Z,1.90
2022-11-21T03:27:25.303Z,2.10
2022-11-21T03:28:25.296Z,2.10
2022-11-21T03:29:25.275Z,2.00
2022-11-21T03:30:25.276Z,1.60
2022-11-21T03:31:25.334Z,1.80
2022-11-21T03:32:25.255Z,2.20
2022-11-21T03:33:25.252Z,1.70
2022-11-21T03:34:25.637Z,1.90
2022-11-21T03:35:26.176Z,2.00
2022-11-21T03:36:25.212Z,1.70
2022-11-21T03:37:25.282Z,1.90
2022-11-21T03:38:25.195Z,1.50
2022-11-21T03:39:25.210Z,1.50
2022-11-21T03:40:25.162Z,1.80
2022-11-21T03:41:25.253Z,2.10
2022-11-21T03:42:25.164Z,2.10
2022-11-21T03:43:25.144Z,1.80
2022-11-21T03:44:25.449Z,1.90
2022-11-21T03:45:25.115Z,1.50
2022-11-21T03:46:25.094Z,1.60
2022-11-21T03:47:25.092Z,1.90
2022-11-21T03:48:25.463Z,2.00
2022-11-21T03:49:25.065Z,2.20
2022-11-21T03:50:25.034Z,2.00
2022-11-21T03:51:25.052Z,1.80
2022-11-21T03:52:25.033Z,1.80
2022-11-21T03:53:25.044Z,2.40
2022-11-21T03:54:25.230Z,2.00
2022-11-21T03:55:25.013Z,1.70
2022-11-21T03:56:24.986Z,1.60
2022-11-21T03:57:24.995Z,1.60
2022-11-21T03:58:25.425Z,1.60
2022-11-21T03:59:25.003Z,1.70
2022-11-21T04:00:24.933Z,1.80
2022-11-21T04:01:24.978Z,2.00
2022-11-21T04:02:24.963Z,1.80
2022-11-21T04:03:24.954Z,1.70
2022-11-21T04:04:25.108Z,1.50
2022-11-21T04:05:24.915Z,1.10
2022-11-21T04:06:24.885Z,1.50
2022-11-21T04:07:25.083Z,1.90
2022-11-21T04:08:24.883Z,1.90
2022-11-21T04:09:24.897Z,1.70
2022-11-21T04:10:24.866Z,1.60
2022-11-21T04:11:24.924Z,2.00
2022-11-21T04:12:24.834Z,1.70
2022-11-21T04:13:24.823Z,1.60
2022-11-21T04:14:24.833Z,1.80
2022-11-21T04:15:24.864Z,1.70
2022-11-21T04:16:24.802Z,1.80
2022-11-21T04:17:24.805Z,1.90
2022-11-21T04:18:24.783Z,2.00
2022-11-21T04:19:24.795Z,1.70
2022-11-21T04:20:24.923Z,1.50
2022-11-21T04:21:24.764Z,1.60
2022-11-21T04:22:24.735Z,1.80
2022-11-21T04:23:24.758Z,2.10
2022-11-21T04:24:24.738Z,1.90
2022-11-21T04:25:24.720Z,1.70
2022-11-21T04:26:25.378Z,1.70
2022-11-21T04:27:24.695Z,1.70
2022-11-21T04:28:24.665Z,1.80
2022-11-21T04:29:24.703Z,2.00
2022-11-21T04:30:24.653Z,1.60
2022-11-21T04:31:24.643Z,1.60
2022-11-21T04:32:24.633Z,1.70
2022-11-21T04:33:24.624Z,2.20
2022-11-21T04:34:24.614Z,2.00
2022-11-21T04:35:24.687Z,1.30
2022-11-21T04:36:24.755Z,1.80
2022-11-21T04:37:24.631Z,1.80
2022-11-21T04:38:24.565Z,1.60
2022-11-21T04:39:24.602Z,1.50
2022-11-21T04:40:24.555Z,2.00
2022-11-21T04:41:24.667Z,1.60
2022-11-21T04:42:24.525Z,1.50
2022-11-21T04:43:24.555Z,1.50
2022-11-21T04:44:24.513Z,1.70
2022-11-21T04:45:24.513Z,1.70
2022-11-21T04:46:24.506Z,1.50
2022-11-21T04:47:24.496Z,1.70
2022-11-21T04:48:24.454Z,1.80
2022-11-21T04:49:24.473Z,1.70
2022-11-21T04:50:24.451Z,1.30
2022-11-21T04:51:24.454Z,1.80
2022-11-21T04:52:24.436Z,1.80
2022-11-21T04:53:24.435Z,1.40
2022-11-21T04:54:24.406Z,1.60
2022-11-21T04:55:24.416Z,1.80
2022-11-21T04:56:24.385Z,1.60
2022-11-21T04:57:24.416Z,1.80
2022-11-21T04:58:24.367Z,1.40
2022-11-21T04:59:24.391Z,1.70
2022-11-21T05:00:24.758Z,1.50
2022-11-21T05:01:25.316Z,1.60
2022-11-21T05:02:24.323Z,1.70
2022-11-21T05:03:24.394Z,1.50
2022-11-21T05:04:24.305Z,1.80
2022-11-21T05:05:24.317Z,1.70
2022-11-21T05:06:24.306Z,1.70
2022-11-21T05:07:24.388Z,1.70
2022-11-21T05:08:24.265Z,1.60
2022-11-21T05:09:24.354Z,1.90
2022-11-21T05:10:24.254Z,1.10
2022-11-21T05:11:24.306Z,1.60
2022-11-21T05:12:24.224Z,1.60
2022-11-21T05:13:24.275Z,1.30
2022-11-21T05:14:24.215Z,1.30
2022-11-21T05:15:24.996Z,1.40
2022-11-21T05:16:24.204Z,1.50
2022-11-21T05:17:24.219Z,1.60
2022-11-21T05:18:24.167Z,1.40
2022-11-21T05:19:24.179Z,1.10
2022-11-21T05:20:24.157Z,1.70
2022-11-21T05:21:25.865Z,1.80
2022-11-21T05:22:24.127Z,1.90
2022-11-21T05:23:24.140Z,1.70
2022-11-21T05:24:24.095Z,1.90
2022-11-21T05:25:24.128Z,1.50
2022-11-21T05:26:24.284Z,1.30
2022-11-21T05:27:24.095Z,1.50
2022-11-21T05:28:24.074Z,1.40
2022-11-21T05:29:28.094Z,1.50
2022-11-21T05:30:24.065Z,1.60
2022-11-21T05:31:24.044Z,1.60
2022-11-21T05:32:25.747Z,1.40
2022-11-21T05:33:24.027Z,1.80
2022-11-21T05:34:24.005Z,1.50
2022-11-21T05:35:24.010Z,1.50
2022-11-21T05:36:23.997Z,1.40
2022-11-21T05:37:24.011Z,1.70
2022-11-21T05:38:25.117Z,1.40
2022-11-21T05:39:23.967Z,1.50
2022-11-21T05:40:23.946Z,1.60
2022-11-21T05:41:23.968Z,1.40
2022-11-21T05:42:23.955Z,1.60
2022-11-21T05:43:23.983Z,1.40
2022-11-21T05:44:23.915Z,1.40
2022-11-21T05:45:23.935Z,1.50
2022-11-21T05:46:23.910Z,1.40
2022-11-21T05:47:23.883Z,1.40
2022-11-21T05:48:23.877Z,1.40
2022-11-21T05:49:23.928Z,1.50
2022-11-21T05:50:23.895Z,1.60
2022-11-21T05:51:23.858Z,1.50
2022-11-21T05:52:23.828Z,1.40
2022-11-21T05:53:23.838Z,1.40
2022-11-21T05:54:23.798Z,1.60
2022-11-21T05:55:23.816Z,1.10
2022-11-21T05:56:23.827Z,1.50
2022-11-21T05:57:23.776Z,1.30
2022-11-21T05:58:24.412Z,1.20
2022-11-21T05:59:23.789Z,1.30
2022-11-21T06:00:23.735Z,1.40
2022-11-21T06:01:23.745Z,1.70
2022-11-21T06:02:23.755Z,1.20
2022-11-21T06:03:23.774Z,1.40
2022-11-21T06:04:23.715Z,1.60
2022-11-21T06:05:24.028Z,1.40
2022-11-21T06:06:25.077Z,1.30
2022-11-21T06:07:23.755Z,1.50
2022-11-21T06:08:23.646Z,1.40
2022-11-21T06:09:23.656Z,1.50
2022-11-21T06:10:23.656Z,1.30
2022-11-21T06:11:23.785Z,1.40
2022-11-21T06:12:25.607Z,1.30
2022-11-21T06:13:23.628Z,1.60
2022-11-21T06:14:23.596Z,1.20
2022-11-21T06:15:23.608Z,1.60
2022-11-21T06:16:23.649Z,1.80
2022-11-21T06:17:23.588Z,1.50
2022-11-21T06:18:23.580Z,1.20
2022-11-21T06:19:23.558Z,1.30
2022-11-21T06:21:20.392Z,1.10
2022-11-21T06:22:20.370Z,1.20
2022-11-21T06:23:20.340Z,1.70
2022-11-21T06:24:22.454Z,1.40
2022-11-21T06:25:20.988Z,1.30
2022-11-21T06:26:20.317Z,1.30
2022-11-21T06:27:20.301Z,1.30
2022-11-21T06:28:21.271Z,1.30
2022-11-21T06:29:20.321Z,1.60
2022-11-21T06:30:22.303Z,1.30
2022-11-21T06:31:20.270Z,1.10
2022-11-21T06:32:20.337Z,1.30
2022-11-21T06:33:20.271Z,1.20
2022-11-21T06:34:21.200Z,1.40
2022-11-21T06:35:20.240Z,1.40
2022-11-21T06:36:20.239Z,1.20
2022-11-21T06:37:20.239Z,1.10
2022-11-21T06:38:20.199Z,1.20
2022-11-21T06:39:20.159Z,1.10
2022-11-21T06:40:20.132Z,1.10
2022-11-21T06:41:20.570Z,1.40
2022-11-21T06:42:20.111Z,1.40
2022-11-21T06:43:20.101Z,1.30
2022-11-21T06:44:20.100Z,1.20
2022-11-21T06:45:20.082Z,1.50
2022-11-21T06:46:20.072Z,0.90
2022-11-21T06:47:20.069Z,1.10
2022-11-21T06:48:20.060Z,1.00
2022-11-21T06:49:20.050Z,1.30
2022-11-21T06:50:20.031Z,1.10
2022-11-21T06:51:20.000Z,1.50
2022-11-21T06:52:20.020Z,1.70
2022-11-21T06:53:20.022Z,1.50
2022-11-21T06:54:20.940Z,1.20
2022-11-21T06:55:20.002Z,1.20
2022-11-21T06:56:19.982Z,1.20
2022-11-21T06:57:19.944Z,1.40
2022-11-21T06:58:19.972Z,1.10
2022-11-21T06:59:19.946Z,1.20
2022-11-21T07:00:19.942Z,1.20
2022-11-21T07:01:19.937Z,1.10
2022-11-21T07:02:19.922Z,1.00
2022-11-21T07:03:19.901Z,1.00
2022-11-21T07:04:19.919Z,1.20
2022-11-21T07:05:19.881Z,1.20
2022-11-21T07:06:19.886Z,1.00
2022-11-21T07:07:19.884Z,1.10
2022-11-21T07:08:19.850Z,1.30
2022-11-21T07:09:33.373Z,1.00
2022-11-21T07:10:20.819Z,1.30
2022-11-21T07:11:27.009Z,1.70
2022-11-21T07:12:20.822Z,1.10
2022-11-21T07:13:20.772Z,1.10
2022-11-21T07:14:20.012Z,1.30
2022-11-21T07:15:19.793Z,0.90
2022-11-21T07:16:19.772Z,1.10
2022-11-21T07:17:19.763Z,1.20
2022-11-21T07:18:19.752Z,1.20
2022-11-21T07:19:19.750Z,1.10
2022-11-21T07:20:19.730Z,1.00
2022-11-21T07:21:19.702Z,1.50
2022-11-21T07:22:19.710Z,1.10
2022-11-21T07:23:19.694Z,0.90
2022-11-21T07:24:19.688Z,1.10
2022-11-21T07:25:19.682Z,1.30
2022-11-21T07:26:19.694Z,1.20
2022-11-21T07:27:19.667Z,1.20
2022-11-21T07:28:19.673Z,1.10
2022-11-21T07:29:19.721Z,1.00
2022-11-21T07:30:19.652Z,1.30
2022-11-21T07:31:19.614Z,1.00
2022-11-21T07:32:19.602Z,1.00
2022-11-21T07:33:19.591Z,1.30
2022-11-21T07:34:19.615Z,1.20
2022-11-21T07:35:19.583Z,1.00
2022-11-21T07:36:19.596Z,0.90
2022-11-21T07:37:19.555Z,1.00
2022-11-21T07:38:19.565Z,0.90
2022-11-21T07:39:19.539Z,1.20
2022-11-21T07:40:19.531Z,1.20
2022-11-21T07:41:19.513Z,1.10
2022-11-21T07:42:19.524Z,1.00
2022-11-21T07:43:19.481Z,1.30
2022-11-21T07:44:19.481Z,0.80
2022-11-21T07:45:19.451Z,1.20
2022-11-21T07:46:19.490Z,1.40
2022-11-21T07:47:19.454Z,1.50
2022-11-21T07:48:19.421Z,0.80
2022-11-21T07:49:19.451Z,0.90
2022-11-21T07:50:19.414Z,1.20
2022-11-21T07:51:20.401Z,0.90
2022-11-21T07:52:19.413Z,1.10
2022-11-21T07:53:19.401Z,1.00
2022-11-21T07:54:19.384Z,1.00
2022-11-21T07:55:19.372Z,1.20
2022-11-21T07:56:19.373Z,0.90
2022-11-21T07:57:20.023Z,0.70
2022-11-21T07:58:19.371Z,1.00
2022-11-21T07:59:19.331Z,1.20
2022-11-21T08:00:19.323Z,1.00
2022-11-21T08:01:19.380Z,1.00
2022-11-21T08:02:19.302Z,1.20
2022-11-21T08:03:19.302Z,1.20
2022-11-21T08:04:19.287Z,1.30
2022-11-21T08:05:19.284Z,1.60
2022-11-21T08:06:19.457Z,1.30
2022-11-21T08:07:19.269Z,1.30
2022-11-21T08:08:19.272Z,0.90
2022-11-21T08:09:19.225Z,0.90
2022-11-21T08:10:19.224Z,1.20
2022-11-21T08:11:19.306Z,1.20
2022-11-21T08:12:19.234Z,0.70
2022-11-21T08:13:19.186Z,0.90
2022-11-21T08:14:19.214Z,1.00
2022-11-21T08:15:19.152Z,1.30
2022-11-21T08:16:19.192Z,1.30
2022-11-21T08:17:19.472Z,1.10
2022-11-21T08:18:19.266Z,1.10
2022-11-21T08:19:19.123Z,1.30
2022-11-21T08:20:19.143Z,1.00
2022-11-21T08:21:20.144Z,1.60
2022-11-21T08:22:19.104Z,1.10
2022-11-21T08:23:19.113Z,1.10
2022-11-21T08:24:19.183Z,1.00
2022-11-21T08:25:19.095Z,1.00
2022-11-21T08:26:19.085Z,0.90
2022-11-21T08:27:19.065Z,1.00
2022-11-21T08:28:19.044Z,1.10
2022-11-21T08:29:19.062Z,1.20
2022-11-21T08:30:19.014Z,1.10
2022-11-21T08:31:19.020Z,1.20
2022-11-21T08:32:18.984Z,1.10
2022-11-21T08:33:19.029Z,1.00
2022-11-21T08:34:19.635Z,1.10
2022-11-21T08:35:18.987Z,1.10
2022-11-21T08:36:18.963Z,1.00
2022-11-21T08:37:19.632Z,0.90
2022-11-21T08:38:18.955Z,1.30
2022-11-21T08:39:18.945Z,1.30
2022-11-21T08:40:18.935Z,1.20
2022-11-21T08:41:18.965Z,1.10
2022-11-21T08:42:18.926Z,1.00
2022-11-21T08:43:18.905Z,0.80
2022-11-21T08:44:18.890Z,0.80
2022-11-21T08:45:20.612Z,0.80
2022-11-21T08:46:18.856Z,1.20
2022-11-21T08:47:18.853Z,0.90
2022-11-21T08:48:18.854Z,1.20
2022-11-21T08:49:18.841Z,1.50
2022-11-21T08:50:18.805Z,1.00
2022-11-21T08:51:18.814Z,1.10
2022-11-21T08:52:18.783Z,1.40
2022-11-21T08:53:18.831Z,1.00
2022-11-21T08:54:18.765Z,1.00
2022-11-21T08:55:18.805Z,1.20
2022-11-21T08:56:18.756Z,0.90
2022-11-21T08:57:18.755Z,1.20
2022-11-21T08:58:19.054Z,1.20
2022-11-21T08:59:18.736Z,1.30
2022-11-21T09:00:18.743Z,1.40
2022-11-21T09:01:18.803Z,0.80
2022-11-21T09:02:18.707Z,0.90
2022-11-21T09:03:22.329Z,1.70
2022-11-21T09:04:19.694Z,1.40
2022-11-21T09:05:19.625Z,1.00
2022-11-21T09:06:18.668Z,1.20
2022-11-21T09:07:18.708Z,1.20
2022-11-21T09:08:18.624Z,1.30
2022-11-21T09:09:24.903Z,1.10
2022-11-21T09:10:20.035Z,1.00
2022-11-21T09:11:18.636Z,1.00
2022-11-21T09:12:18.607Z,1.00
2022-11-21T09:13:18.596Z,0.90
2022-11-21T09:14:18.585Z,1.20
2022-11-21T09:15:18.613Z,1.00
2022-11-21T09:16:20.619Z,1.10
2022-11-21T09:17:18.561Z,1.30
2022-11-21T09:18:18.534Z,0.90
2022-11-21T09:19:18.523Z,1.20
2022-11-21T09:20:18.589Z,0.90
2022-11-21T09:21:18.525Z,0.90
2022-11-21T09:22:18.544Z,1.10
2022-11-21T09:23:18.507Z,1.10
2022-11-21T09:24:18.486Z,1.30
2022-11-21T09:25:18.488Z,1.10
2022-11-21T09:26:18.490Z,1.10
2022-11-21T09:27:18.470Z,1.10
2022-11-21T09:28:18.490Z,1.20
2022-11-21T09:29:18.498Z,1.30
2022-11-21T09:30:18.462Z,1.10
2022-11-21T09:31:18.436Z,0.70
2022-11-21T09:32:18.399Z,1.10
2022-11-21T09:33:18.406Z,1.10
2022-11-21T09:34:18.418Z,1.20
2022-11-21T09:35:18.414Z,1.20
2022-11-21T09:36:18.345Z,1.20
2022-11-21T09:37:18.398Z,1.20
2022-11-21T09:38:23.680Z,1.00
2022-11-21T09:39:19.346Z,1.00
2022-11-21T09:40:18.320Z,1.10
2022-11-21T09:41:18.483Z,0.90
2022-11-21T09:42:18.295Z,0.60
2022-11-21T09:43:18.434Z,1.10
2022-11-21T09:44:18.285Z,1.20
2022-11-21T09:45:18.284Z,1.10
2022-11-21T09:46:18.254Z,1.00
2022-11-21T09:47:18.265Z,1.30
2022-11-21T09:48:18.264Z,1.20
2022-11-21T09:49:18.247Z,0.90
2022-11-21T09:50:18.207Z,1.10
2022-11-21T09:51:20.565Z,1.20
2022-11-21T09:52:18.196Z,1.10
2022-11-21T09:53:18.208Z,0.80
2022-11-21T09:54:18.167Z,1.10
2022-11-21T09:55:18.191Z,0.70
2022-11-21T09:56:18.155Z,1.00
2022-11-21T09:57:18.205Z,0.70
2022-11-21T09:58:18.133Z,0.90
2022-11-21T09:59:18.134Z,0.90
2022-11-21T10:00:18.104Z,1.10
2022-11-21T10:01:18.277Z,1.20
2022-11-21T10:02:18.115Z,0.90
2022-11-21T10:03:22.329Z,1.20
2022-11-21T10:04:18.064Z,0.90
2022-11-21T10:05:18.126Z,0.90
2022-11-21T10:06:18.057Z,0.70
2022-11-21T10:07:18.109Z,1.20
2022-11-21T10:08:18.099Z,1.10
2022-11-21T10:09:18.047Z,0.80
2022-11-21T10:10:18.007Z,1.00
2022-11-21T10:11:19.914Z,1.30
2022-11-21T10:12:18.032Z,2.00
2022-11-21T10:13:17.985Z,1.50
2022-11-21T10:14:18.021Z,1.20
2022-11-21T10:15:18.014Z,1.20
2022-11-21T10:16:17.965Z,1.00
2022-11-21T10:17:18.094Z,1.20
2022-11-21T10:18:17.935Z,0.90
2022-11-21T10:19:17.915Z,1.50
2022-11-21T10:20:17.983Z,1.50
2022-11-21T10:21:17.925Z,1.50
2022-11-21T10:22:17.887Z,1.50
2022-11-21T10:23:17.937Z,1.40
2022-11-21T10:24:17.887Z,0.90
2022-11-21T10:25:19.086Z,0.80
2022-11-21T10:26:17.869Z,1.30
2022-11-21T10:27:17.888Z,1.20
2022-11-21T10:28:17.836Z,1.20
2022-11-21T10:29:18.047Z,0.90
2022-11-21T10:30:17.871Z,1.20
2022-11-21T10:31:17.814Z,1.40
2022-11-21T10:32:17.785Z,2.30
2022-11-21T10:33:17.805Z,1.00
2022-11-21T10:34:17.768Z,1.60
2022-11-21T10:35:17.786Z,1.00
2022-11-21T10:36:17.747Z,1.00
2022-11-21T10:37:18.429Z,1.20
2022-11-21T10:38:17.737Z,1.40
2022-11-21T10:39:17.737Z,1.70
2022-11-21T10:40:17.815Z,1.30
2022-11-21T10:41:17.778Z,1.10
2022-11-21T10:42:23.129Z,1.10
2022-11-21T10:43:18.686Z,1.00
2022-11-21T10:44:17.674Z,1.10
2022-11-21T10:45:17.702Z,1.10
2022-11-21T10:46:17.665Z,1.20
2022-11-21T10:47:17.659Z,1.30
2022-11-21T10:48:17.627Z,0.90
2022-11-21T10:49:17.658Z,0.90
2022-11-21T10:50:17.765Z,0.90
2022-11-21T10:51:18.576Z,0.90
2022-11-21T10:52:17.587Z,1.30
2022-11-21T10:53:18.106Z,0.90
2022-11-21T10:54:17.564Z,1.10
2022-11-21T10:55:17.605Z,0.80
2022-11-21T10:56:17.566Z,1.10
2022-11-21T10:57:17.537Z,1.20
2022-11-21T10:58:17.551Z,1.10
2022-11-21T10:59:17.529Z,1.00
2022-11-21T11:00:18.119Z,0.90
2022-11-21T11:01:17.591Z,0.70
2022-11-21T11:02:17.509Z,0.90
2022-11-21T11:03:17.517Z,1.40
2022-11-21T11:04:41.591Z,0.90
2022-11-21T11:05:18.477Z,1.00
2022-11-21T11:06:17.468Z,1.00
2022-11-21T11:07:17.543Z,0.90
2022-11-21T11:08:17.416Z,0.90
2022-11-21T11:09:17.427Z,1.00
2022-11-21T11:10:18.862Z,1.00
2022-11-21T11:11:17.438Z,1.00
2022-11-21T11:12:17.416Z,0.90
2022-11-21T11:13:44.611Z,1.20
2022-11-21T11:14:18.355Z,0.70
2022-11-21T11:15:17.369Z,1.00
2022-11-21T11:16:17.365Z,1.20
2022-11-21T11:17:17.428Z,0.80
2022-11-21T11:18:17.328Z,0.80
2022-11-21T11:19:17.339Z,1.00
2022-11-21T11:20:17.328Z,0.80
2022-11-21T11:22:14.038Z,1.00
2022-11-21T11:23:14.068Z,1.10
2022-11-21T11:24:14.009Z,0.80
2022-11-21T11:25:14.048Z,1.10
2022-11-21T11:26:13.982Z,0.80
2022-11-21T11:27:14.016Z,1.20
2022-11-21T11:28:14.008Z,1.10
2022-11-21T11:29:13.989Z,1.00
2022-11-21T11:30:13.967Z,0.60
2022-11-21T11:31:13.979Z,1.10
2022-11-21T11:32:19.475Z,0.70
2022-11-21T11:33:14.925Z,1.10
2022-11-21T11:34:13.928Z,0.80
2022-11-21T11:35:13.909Z,0.70
2022-11-21T11:36:13.892Z,0.90
2022-11-21T11:37:13.914Z,0.70
2022-11-21T11:38:13.860Z,1.00
2022-11-21T11:39:14.526Z,1.10
2022-11-21T11:40:13.849Z,1.00
2022-11-21T11:41:13.893Z,1.00
2022-11-21T11:42:16.716Z,0.90
2022-11-21T11:43:13.834Z,1.00
2022-11-21T11:44:13.799Z,1.40
2022-11-21T11:45:13.798Z,1.00
2022-11-21T11:46:13.796Z,1.00
2022-11-21T11:47:13.808Z,0.70
2022-11-21T11:48:13.786Z,0.90
2022-11-21T11:49:21.730Z,1.00
2022-11-21T11:50:14.823Z,0.60
2022-11-21T11:51:14.638Z,1.10
2022-11-21T11:52:13.742Z,0.70
2022-11-21T11:53:13.729Z,1.00
2022-11-21T11:54:14.359Z,1.30
2022-11-21T11:55:13.721Z,1.00
2022-11-21T11:56:13.668Z,1.20
2022-11-21T11:57:13.687Z,0.70
2022-11-21T11:58:13.697Z,1.00
2022-11-21T11:59:13.671Z,0.80
2022-11-21T12:00:13.722Z,1.00
2022-11-21T12:01:13.661Z,1.00
2022-11-21T12:02:13.662Z,1.00
2022-11-21T12:03:13.634Z,0.80
2022-11-21T12:04:13.651Z,1.20
2022-11-21T12:05:13.620Z,1.10
2022-11-21T12:06:13.584Z,0.90
2022-11-21T12:09:14.580Z,0.80
2022-11-21T12:10:13.574Z,1.20
2022-11-21T12:11:13.543Z,0.70
2022-11-21T12:12:13.506Z,0.90
2022-11-21T12:13:13.529Z,1.00
2022-11-21T12:14:13.498Z,0.90
2022-11-21T12:15:13.544Z,0.80
2022-11-21T12:16:14.151Z,1.10
2022-11-21T12:17:13.490Z,0.70
2022-11-21T12:18:13.460Z,0.90
2022-11-21T12:19:13.494Z,0.70
2022-11-21T12:20:13.545Z,0.80
2022-11-21T12:21:13.450Z,0.90
2022-11-21T12:22:13.444Z,0.90
2022-11-21T12:23:13.469Z,1.10
2022-11-21T12:24:13.392Z,0.90
2022-11-21T12:25:13.428Z,0.90
2022-11-21T12:26:13.358Z,0.80
2022-11-21T12:27:13.379Z,1.10
2022-11-21T12:28:13.350Z,1.00
2022-11-21T12:29:13.392Z,0.80
2022-11-21T12:30:13.441Z,0.80
2022-11-21T12:31:13.410Z,1.30
2022-11-21T12:32:13.316Z,0.90
2022-11-21T12:33:13.340Z,1.00
2022-11-21T12:34:13.295Z,0.90
2022-11-21T12:35:13.298Z,0.80
2022-11-21T12:36:20.093Z,1.00
2022-11-21T12:37:14.269Z,0.90
2022-11-21T12:38:13.299Z,1.10
2022-11-21T12:39:13.239Z,1.10
2022-11-21T12:40:13.245Z,1.00
2022-11-21T12:41:13.246Z,0.70
2022-11-21T12:42:13.213Z,0.80
2022-11-21T12:43:13.230Z,0.70
2022-11-21T12:44:13.199Z,0.90
2022-11-21T12:45:13.189Z,0.70
2022-11-21T12:46:13.174Z,0.60
2022-11-21T12:47:13.183Z,0.70
2022-11-21T12:48:13.168Z,0.70
2022-11-21T12:49:13.182Z,0.90
2022-11-21T12:50:13.153Z,1.00
2022-11-21T12:51:13.131Z,0.90
2022-11-21T12:52:13.119Z,0.70
2022-11-21T12:53:13.120Z,1.20
2022-11-21T12:54:13.081Z,0.80
2022-11-21T12:55:13.215Z,1.00
2022-11-21T12:56:13.070Z,1.10
2022-11-21T12:57:13.091Z,1.10
2022-11-21T12:58:13.049Z,0.70
2022-11-21T12:59:13.051Z,0.60
2022-11-21T13:00:13.032Z,0.50
2022-11-21T13:01:18.112Z,0.90
2022-11-21T13:02:14.056Z,0.60
2022-11-21T13:03:13.000Z,0.80
2022-11-21T13:04:12.999Z,1.00
2022-11-21T13:05:13.001Z,1.40
2022-11-21T13:06:12.960Z,1.50
2022-11-21T13:07:13.003Z,1.50
2022-11-21T13:08:12.944Z,1.20
2022-11-21T13:09:12.972Z,1.10
2022-11-21T13:10:13.530Z,1.00
2022-11-21T13:11:12.972Z,1.20
2022-11-21T13:12:12.943Z,1.30
2022-11-21T13:13:12.915Z,1.50
2022-11-21T13:14:12.947Z,1.70
2022-11-21T13:15:12.932Z,1.10
2022-11-21T13:16:13.007Z,1.20
2022-11-21T13:17:12.885Z,1.20
2022-11-21T13:18:12.852Z,1.20
2022-11-21T13:19:12.882Z,1.20
2022-11-21T13:20:12.831Z,1.00
2022-11-21T13:21:12.858Z,1.40
2022-11-21T13:22:12.809Z,1.20
2022-11-21T13:23:12.802Z,1.00